createdAt,value
2022-12-31T00:01:47.028Z,13.04
2022-12-31T00:04:13.677Z,12.94
2022-12-31T00:06:40.231Z,13.18
2022-12-31T00:09:10.445Z,13.06
2022-12-31T00:11:37.372Z,13.08
2022-12-31T00:14:04.385Z,12.98
2022-12-31T00:16:33.079Z,12.95
2022-12-31T00:19:00.372Z,12.93
2022-12-31T00:21:28.004Z,13.05
2022-12-31T00:23:57.128Z,13.09
2022-12-31T00:26:25.215Z,13.15
2022-12-31T00:28:52.817Z,13.09
2022-12-31T00:31:23.631Z,13.07
2022-12-31T00:33:52.644Z,13.02
2022-12-31T00:36:23.732Z,13.07
2022-12-31T00:38:51.233Z,12.97
2022-12-31T00:41:20.625Z,13.02
2022-12-31T00:43:50.062Z,13.07
2022-12-31T00:46:17.316Z,13.20
2022-12-31T00:48:47.344Z,13.10
2022-12-31T00:51:15.468Z,13.13
2022-12-31T00:53:42.131Z,13.35
2022-12-31T00:56:11.315Z,13.41
2022-12-31T00:58:38.252Z,13.51
2022-12-31T01:01:23.574Z,13.57
2022-12-31T01:03:51.172Z,13.40
2022-12-31T01:06:17.802Z,13.61
2022-12-31T01:08:44.435Z,13.31
2022-12-31T01:11:22.974Z,13.57
2022-12-31T01:14:00.002Z,13.59
2022-12-31T01:16:28.535Z,13.50
2022-12-31T01:18:55.627Z,13.56
2022-12-31T01:21:22.449Z,13.64
2022-12-31T01:23:49.005Z,13.68
2022-12-31T01:26:16.726Z,13.67
2022-12-31T01:28:43.298Z,13.86
2022-12-31T01:31:12.395Z,13.89
2022-12-31T01:33:39.365Z,13.82
2022-12-31T01:36:07.424Z,13.73
2022-12-31T01:38:34.469Z,13.86
2022-12-31T01:41:01.517Z,13.92
2022-12-31T01:43:46.857Z,14.04
2022-12-31T01:46:17.397Z,14.04
2022-12-31T01:48:45.985Z,14.17
2022-12-31T01:51:12.873Z,14.26
2022-12-31T01:53:41.029Z,14.45
2022-12-31T01:56:08.691Z,14.15
2022-12-31T01:58:40.124Z,14.34
2022-12-31T02:01:07.807Z,14.22
2022-12-31T02:03:34.765Z,14.26
2022-12-31T02:06:05.280Z,14.17
2022-12-31T02:08:35.772Z,14.26
2022-12-31T02:11:21.509Z,13.96
2022-12-31T02:13:55.021Z,14.03
2022-12-31T02:16:44.928Z,13.85
2022-12-31T02:19:11.444Z,13.80
2022-12-31T02:21:50.142Z,13.63
2022-12-31T02:24:22.606Z,13.56
2022-12-31T02:27:01.923Z,13.77
2022-12-31T02:29:28.522Z,13.96
2022-12-31T02:32:00.309Z,13.71
2022-12-31T02:34:26.878Z,13.73
2022-12-31T02:36:55.030Z,13.94
2022-12-31T02:39:21.983Z,13.88
2022-12-31T02:41:52.864Z,14.08
2022-12-31T02:44:23.693Z,14.26
2022-12-31T02:47:10.649Z,14.12
2022-12-31T02:49:56.017Z,14.28
2022-12-31T02:52:25.372Z,13.95
2022-12-31T02:54:54.930Z,14.06
2022-12-31T02:57:33.850Z,13.92
2022-12-31T03:00:29.928Z,13.85
2022-12-31T03:02:57.661Z,13.54
2022-12-31T03:05:25.911Z,13.68
2022-12-31T03:07:53.842Z,13.73
2022-12-31T03:10:20.383Z,13.69
2022-12-31T03:12:47.507Z,13.80
2022-12-31T03:15:21.802Z,13.90
2022-12-31T03:17:49.675Z,13.67
2022-12-31T03:20:35.399Z,13.82
2022-12-31T03:23:05.858Z,13.59
2022-12-31T03:25:41.639Z,13.83
2022-12-31T03:28:10.415Z,13.55
2022-12-31T03:30:38.348Z,13.95
2022-12-31T03:33:05.483Z,13.75
2022-12-31T03:35:35.470Z,14.09
2022-12-31T03:38:02.207Z,13.84
2022-12-31T03:40:32.086Z,13.93
2022-12-31T03:42:58.681Z,14.06
2022-12-31T03:45:25.224Z,14.04
2022-12-31T03:47:51.875Z,14.21
2022-12-31T03:50:18.725Z,14.26
2022-12-31T03:52:45.790Z,14.09
2022-12-31T03:55:13.020Z,14.07
2022-12-31T03:57:40.323Z,14.26
2022-12-31T04:00:08.608Z,14.28
2022-12-31T04:02:35.331Z,14.34
2022-12-31T04:05:01.924Z,14.36
2022-12-31T04:07:29.535Z,14.52
2022-12-31T04:09:56.096Z,14.57
2022-12-31T04:12:22.726Z,14.48
2022-12-31T04:14:49.287Z,14.36
2022-12-31T04:17:18.940Z,14.54
2022-12-31T04:19:45.565Z,14.64
2022-12-31T04:22:12.149Z,14.63
2022-12-31T04:24:39.376Z,14.66
2022-12-31T04:27:07.963Z,14.43
2022-12-31T04:29:35.196Z,14.33
2022-12-31T04:32:01.961Z,14.32
2022-12-31T04:34:30.861Z,14.32
2022-12-31T04:36:57.482Z,14.33
2022-12-31T04:39:24.254Z,14.10
2022-12-31T04:41:50.938Z,14.36
2022-12-31T04:44:17.523Z,14.11
2022-12-31T04:46:44.205Z,14.01
2022-12-31T04:49:10.746Z,14.20
2022-12-31T04:51:37.612Z,14.12
2022-12-31T04:56:44.962Z,14.13
2022-12-31T04:59:14.207Z,13.95
2022-12-31T05:01:43.072Z,14.00
2022-12-31T05:04:10.363Z,14.16
2022-12-31T05:06:36.967Z,14.11
2022-12-31T05:09:03.493Z,14.17
2022-12-31T05:11:30.057Z,14.01
2022-12-31T05:13:56.640Z,14.30
2022-12-31T05:16:23.402Z,14.43
2022-12-31T05:18:49.964Z,14.35
2022-12-31T05:21:19.412Z,14.33
2022-12-31T05:23:45.939Z,14.51
2022-12-31T05:26:16.034Z,14.62
2022-12-31T05:28:45.111Z,14.53
2022-12-31T05:31:11.661Z,14.53
2022-12-31T05:33:38.231Z,14.77
2022-12-31T05:36:04.989Z,14.83
2022-12-31T05:38:31.578Z,15.08
2022-12-31T05:41:04.196Z,15.22
2022-12-31T05:43:31.394Z,15.45
2022-12-31T05:46:00.536Z,15.60
2022-12-31T05:48:27.102Z,15.60
2022-12-31T05:50:56.789Z,15.82
2022-12-31T05:53:23.353Z,15.56
2022-12-31T05:55:49.957Z,15.78
2022-12-31T05:58:16.675Z,15.77
2022-12-31T06:00:43.220Z,15.89
2022-12-31T06:03:12.390Z,15.90
2022-12-31T06:05:41.653Z,15.84
2022-12-31T06:08:12.189Z,15.90
2022-12-31T06:10:39.313Z,15.95
2022-12-31T06:13:05.902Z,15.94
2022-12-31T06:15:32.777Z,16.05
2022-12-31T06:17:59.379Z,16.05
2022-12-31T06:20:26.021Z,15.70
2022-12-31T06:22:52.545Z,15.74
2022-12-31T06:25:19.131Z,15.58
2022-12-31T06:27:45.750Z,15.52
2022-12-31T06:30:12.670Z,15.23
2022-12-31T06:32:40.731Z,15.36
2022-12-31T06:35:07.605Z,15.16
2022-12-31T06:37:36.728Z,15.10
2022-12-31T06:40:03.473Z,15.21
2022-12-31T06:42:33.568Z,15.08
2022-12-31T06:45:00.203Z,14.79
2022-12-31T06:47:29.176Z,14.78
2022-12-31T06:49:55.881Z,14.52
2022-12-31T06:52:22.438Z,14.61
2022-12-31T06:54:49.220Z,14.61
2022-12-31T06:57:16.011Z,14.57
2022-12-31T06:59:43.206Z,14.49
2022-12-31T07:02:28.798Z,14.51
2022-12-31T07:05:08.935Z,14.50
2022-12-31T07:07:46.207Z,14.33
2022-12-31T07:10:12.825Z,14.43
2022-12-31T07:12:47.181Z,14.32
2022-12-31T07:15:29.903Z,14.28
2022-12-31T07:17:58.188Z,14.25
2022-12-31T07:20:24.923Z,14.33
2022-12-31T07:22:58.726Z,14.33
2022-12-31T07:25:26.712Z,14.00
2022-12-31T07:28:01.657Z,13.98
2022-12-31T07:30:31.032Z,14.09
2022-12-31T07:33:08.963Z,14.28
2022-12-31T07:35:54.811Z,14.43
2022-12-31T07:38:40.139Z,14.18
2022-12-31T07:41:15.943Z,14.07
2022-12-31T07:43:54.969Z,14.53
2022-12-31T07:46:27.742Z,14.33
2022-12-31T07:48:54.477Z,14.29
2022-12-31T07:51:21.207Z,14.37
2022-12-31T07:53:47.820Z,14.06
2022-12-31T07:56:14.378Z,14.33
2022-12-31T07:58:41.012Z,14.28
2022-12-31T08:01:16.327Z,14.21
2022-12-31T08:03:45.854Z,14.27
2022-12-31T08:06:31.572Z,14.28
2022-12-31T08:09:18.368Z,14.42
2022-12-31T08:11:44.941Z,14.33
2022-12-31T08:14:13.234Z,14.27
2022-12-31T08:16:40.068Z,14.32
2022-12-31T08:19:07.085Z,14.16
2022-12-31T08:21:48.820Z,13.92
2022-12-31T08:24:40.242Z,14.07
2022-12-31T08:27:21.026Z,14.10
2022-12-31T08:30:09.517Z,13.98
2022-12-31T08:32:48.314Z,14.01
2022-12-31T08:35:18.779Z,14.10
2022-12-31T08:37:51.474Z,13.68
2022-12-31T08:40:18.092Z,14.07
2022-12-31T08:42:56.811Z,14.12
2022-12-31T08:45:28.645Z,13.89
2022-12-31T08:48:00.263Z,13.98
2022-12-31T08:50:27.716Z,14.09
2022-12-31T08:52:54.490Z,14.20
2022-12-31T08:55:21.949Z,14.37
2022-12-31T08:58:06.734Z,14.28
2022-12-31T09:00:34.058Z,14.29
2022-12-31T09:03:00.594Z,14.21
2022-12-31T09:05:53.002Z,14.23
2022-12-31T09:08:30.466Z,14.65
2022-12-31T09:11:07.879Z,14.82
2022-12-31T09:13:49.559Z,14.76
2022-12-31T09:16:22.810Z,14.48
2022-12-31T09:18:49.400Z,14.52
2022-12-31T09:21:16.439Z,14.66
2022-12-31T09:23:46.103Z,14.54
2022-12-31T09:26:18.885Z,14.59
2022-12-31T09:29:04.201Z,14.59
2022-12-31T09:31:55.330Z,14.41
2022-12-31T09:34:36.351Z,14.57
2022-12-31T09:37:06.730Z,14.48
2022-12-31T09:39:42.885Z,14.54
2022-12-31T09:42:09.422Z,14.52
2022-12-31T09:44:39.118Z,14.39
2022-12-31T09:47:08.564Z,14.64
2022-12-31T09:50:00.871Z,14.67
2022-12-31T09:52:45.951Z,14.76
2022-12-31T09:55:12.530Z,14.88
2022-12-31T09:57:39.648Z,14.81
2022-12-31T10:00:13.200Z,14.86
2022-12-31T10:02:54.699Z,14.70
2022-12-31T10:05:33.206Z,14.91
2022-12-31T10:08:18.425Z,14.74
2022-12-31T10:10:53.701Z,14.87
2022-12-31T10:13:25.799Z,14.90
2022-12-31T10:16:10.478Z,15.04
2022-12-31T10:18:46.303Z,14.89
2022-12-31T10:21:12.897Z,15.08
2022-12-31T10:23:39.393Z,15.19
2022-12-31T10:26:17.447Z,14.98
2022-12-31T10:29:02.753Z,15.12
2022-12-31T10:31:49.590Z,15.28
2022-12-31T10:34:49.598Z,15.40
2022-12-31T10:37:18.226Z,15.56
2022-12-31T10:39:51.000Z,15.48
2022-12-31T10:42:35.856Z,15.98
2022-12-31T10:45:20.520Z,15.92
2022-12-31T10:47:53.034Z,16.44
2022-12-31T10:50:38.102Z,16.66
2022-12-31T10:53:07.582Z,16.89
2022-12-31T10:55:52.383Z,16.77
2022-12-31T10:58:27.382Z,16.91
2022-12-31T11:01:20.345Z,16.94
2022-12-31T11:03:56.078Z,16.81
2022-12-31T11:06:43.495Z,16.96
2022-12-31T11:09:13.170Z,16.97
2022-12-31T11:11:53.639Z,16.98
2022-12-31T11:14:34.974Z,17.09
2022-12-31T11:17:01.508Z,16.87
2022-12-31T11:19:53.962Z,17.00
2022-12-31T11:22:44.188Z,17.32
2022-12-31T11:25:31.268Z,17.06
2022-12-31T11:28:11.938Z,17.25
2022-12-31T11:30:56.000Z,17.17
2022-12-31T11:33:52.172Z,17.29
2022-12-31T11:36:33.120Z,17.24
2022-12-31T11:39:24.628Z,17.29
2022-12-31T11:42:03.112Z,17.27
2022-12-31T11:44:40.472Z,17.35
2022-12-31T11:47:25.900Z,17.37
2022-12-31T11:49:55.349Z,17.32
2022-12-31T11:52:24.827Z,17.61
2022-12-31T11:55:00.553Z,17.58
2022-12-31T11:57:29.888Z,17.65
2022-12-31T11:59:57.779Z,17.69
2022-12-31T12:02:26.826Z,17.67
2022-12-31T12:04:55.204Z,17.59
2022-12-31T12:07:22.014Z,17.49
2022-12-31T12:09:49.121Z,17.60
2022-12-31T12:12:16.487Z,17.69
2022-12-31T12:14:44.307Z,17.62
2022-12-31T12:17:15.381Z,17.70
2022-12-31T12:19:46.486Z,17.70
2022-12-31T12:22:14.756Z,17.73
2022-12-31T12:24:51.708Z,17.90
2022-12-31T12:27:20.521Z,17.91
2022-12-31T12:29:54.935Z,17.91
2022-12-31T12:32:24.932Z,17.51
2022-12-31T12:34:52.144Z,17.40
2022-12-31T12:37:24.507Z,17.39
2022-12-31T12:40:02.193Z,17.59
2022-12-31T12:42:29.920Z,17.57
2022-12-31T12:45:08.182Z,17.81
2022-12-31T12:47:42.547Z,17.64
2022-12-31T12:50:20.982Z,17.62
2022-12-31T12:53:03.725Z,17.94
2022-12-31T12:55:41.353Z,18.02
2022-12-31T12:58:29.652Z,18.21
2022-12-31T13:01:03.108Z,18.16
2022-12-31T13:04:07.396Z,18.25
2022-12-31T13:06:47.326Z,18.28
2022-12-31T13:09:32.730Z,18.48
2022-12-31T13:12:07.311Z,18.58
2022-12-31T13:14:49.954Z,18.35
2022-12-31T13:17:39.759Z,18.38
2022-12-31T13:20:06.665Z,18.50
2022-12-31T13:22:56.730Z,18.50
2022-12-31T13:25:32.360Z,18.57
2022-12-31T13:28:02.686Z,18.65
2022-12-31T13:30:40.336Z,18.62
2022-12-31T13:33:16.227Z,18.59
2022-12-31T13:35:43.743Z,18.62
2022-12-31T13:38:21.734Z,18.65
2022-12-31T13:40:51.996Z,18.98
2022-12-31T13:43:24.628Z,18.69
2022-12-31T13:45:58.259Z,18.82
2022-12-31T13:48:32.754Z,18.58
2022-12-31T13:51:08.000Z,18.74
2022-12-31T13:53:45.063Z,18.50
2022-12-31T13:56:14.938Z,18.65
2022-12-31T13:58:50.542Z,18.83
2022-12-31T14:01:33.681Z,18.82
2022-12-31T14:04:16.701Z,18.36
2022-12-31T14:06:43.280Z,18.44
2022-12-31T14:09:14.721Z,18.21
2022-12-31T14:12:00.473Z,18.27
2022-12-31T14:14:42.365Z,17.83
2022-12-31T14:17:19.661Z,17.90
2022-12-31T14:19:55.091Z,18.12
2022-12-31T14:22:24.730Z,18.09
2022-12-31T14:24:54.381Z,18.01
2022-12-31T14:27:27.105Z,18.08
2022-12-31T14:29:56.449Z,18.02
2022-12-31T14:32:28.825Z,18.11
2022-12-31T14:35:13.987Z,18.05
2022-12-31T14:38:00.819Z,18.06
2022-12-31T14:40:48.959Z,18.14
2022-12-31T14:43:21.688Z,18.00
2022-12-31T14:45:48.321Z,17.91
2022-12-31T14:48:21.832Z,17.84
2022-12-31T14:50:51.671Z,17.97
2022-12-31T14:53:22.564Z,17.80
2022-12-31T14:56:08.243Z,17.80
2022-12-31T14:58:38.891Z,17.95
2022-12-31T15:01:22.186Z,17.84
2022-12-31T15:03:50.569Z,18.08
2022-12-31T15:06:23.299Z,18.06
2022-12-31T15:09:08.779Z,18.07
2022-12-31T15:11:58.819Z,18.16
2022-12-31T15:14:37.845Z,18.04
2022-12-31T15:17:07.491Z,18.12
2022-12-31T15:19:52.633Z,18.07
2022-12-31T15:22:31.686Z,18.04
2022-12-31T15:25:01.317Z,18.13
2022-12-31T15:27:35.967Z,18.04
2022-12-31T15:30:03.245Z,17.92
2022-12-31T15:32:40.233Z,18.04
2022-12-31T15:35:22.308Z,18.23
2022-12-31T15:38:12.155Z,18.28
2022-12-31T15:40:47.986Z,18.26
2022-12-31T15:43:16.936Z,18.39
2022-12-31T15:45:43.837Z,18.23
2022-12-31T15:48:15.501Z,18.16
2022-12-31T15:50:43.332Z,18.24
2022-12-31T15:53:20.821Z,18.25
2022-12-31T15:55:52.973Z,18.46
2022-12-31T15:58:22.490Z,18.34
2022-12-31T16:01:03.774Z,18.29
2022-12-31T16:03:31.729Z,18.17
2022-12-31T16:06:02.733Z,18.29
2022-12-31T16:08:31.620Z,18.31
2022-12-31T16:10:58.876Z,18.21
2022-12-31T16:13:29.554Z,18.30
2022-12-31T16:16:06.489Z,18.20
2022-12-31T16:18:40.036Z,18.03
2022-12-31T16:21:22.441Z,18.27
2022-12-31T16:23:56.834Z,18.53
2022-12-31T16:26:25.354Z,18.30
2022-12-31T16:28:52.002Z,18.25
2022-12-31T16:31:19.875Z,18.27
2022-12-31T16:33:46.778Z,18.31
2022-12-31T16:36:19.766Z,18.19
2022-12-31T16:38:46.376Z,18.26
2022-12-31T16:41:20.363Z,18.46
2022-12-31T16:43:51.539Z,18.38
2022-12-31T16:46:18.132Z,18.53
2022-12-31T16:48:49.928Z,18.45
2022-12-31T16:51:18.811Z,18.31
2022-12-31T16:53:47.162Z,18.38
2022-12-31T16:56:19.841Z,18.38
2022-12-31T16:58:46.491Z,18.31
2022-12-31T17:01:23.313Z,18.16
2022-12-31T17:03:52.551Z,18.35
2022-12-31T17:06:20.111Z,18.21
2022-12-31T17:09:02.442Z,18.34
2022-12-31T17:11:34.043Z,18.07
2022-12-31T17:14:06.890Z,18.26
2022-12-31T17:16:38.448Z,18.05
2022-12-31T17:19:05.026Z,18.09
2022-12-31T17:21:34.602Z,17.96
2022-12-31T17:24:03.243Z,18.07
2022-12-31T17:26:32.439Z,17.98
2022-12-31T17:28:59.964Z,18.20
2022-12-31T17:31:29.345Z,18.04
2022-12-31T17:34:06.747Z,18.16
2022-12-31T17:36:33.402Z,18.19
2022-12-31T17:39:19.375Z,17.63
2022-12-31T17:41:46.995Z,17.72
2022-12-31T17:44:26.057Z,17.74
2022-12-31T17:46:52.997Z,17.66
2022-12-31T17:49:27.226Z,17.83
2022-12-31T17:51:53.935Z,17.64
2022-12-31T17:54:20.457Z,17.67
2022-12-31T17:56:54.645Z,17.62
2022-12-31T17:59:22.643Z,17.56
2022-12-31T18:01:49.623Z,17.70
2022-12-31T18:04:17.031Z,17.72
2022-12-31T18:06:46.282Z,17.61
2022-12-31T18:09:12.906Z,17.41
2022-12-31T18:11:40.165Z,17.37
2022-12-31T18:14:07.321Z,17.41
2022-12-31T18:16:34.360Z,17.65
2022-12-31T18:19:01.262Z,17.60
2022-12-31T18:21:34.693Z,17.49
2022-12-31T18:26:28.863Z,17.54
2022-12-31T18:28:56.826Z,17.44
2022-12-31T18:31:27.819Z,17.69
2022-12-31T18:33:55.365Z,17.53
2022-12-31T18:36:22.562Z,17.62
2022-12-31T18:38:49.395Z,17.45
2022-12-31T18:41:15.887Z,17.57
2022-12-31T18:43:42.478Z,17.51
2022-12-31T18:46:13.675Z,17.51
2022-12-31T18:48:43.712Z,17.56
2022-12-31T18:51:12.944Z,17.58
2022-12-31T18:53:39.505Z,17.35
2022-12-31T18:56:06.295Z,17.42
2022-12-31T18:58:32.900Z,17.35
2022-12-31T19:00:59.493Z,17.20
2022-12-31T19:03:28.291Z,17.54
2022-12-31T19:05:58.049Z,17.32
2022-12-31T19:08:24.622Z,17.38
2022-12-31T19:10:52.281Z,17.29
2022-12-31T19:13:20.143Z,17.19
2022-12-31T19:15:51.179Z,17.30
2022-12-31T19:18:20.689Z,17.43
2022-12-31T19:20:47.744Z,17.36
2022-12-31T19:23:18.331Z,17.40
2022-12-31T19:25:45.873Z,17.40
2022-12-31T19:28:17.472Z,17.32
2022-12-31T19:30:44.710Z,17.53
2022-12-31T19:33:11.725Z,17.24
2022-12-31T19:35:38.716Z,17.25
2022-12-31T19:38:06.229Z,17.26
2022-12-31T19:40:32.838Z,17.45
2022-12-31T19:42:59.416Z,17.39
2022-12-31T19:45:27.380Z,17.64
2022-12-31T19:47:54.626Z,17.30
2022-12-31T19:50:22.373Z,17.41
2022-12-31T19:52:50.090Z,17.40
2022-12-31T19:55:19.379Z,17.49
2022-12-31T19:57:48.970Z,17.46
2022-12-31T20:00:16.897Z,17.40
2022-12-31T20:02:44.598Z,17.54
2022-12-31T20:05:12.225Z,17.47
2022-12-31T20:07:38.776Z,17.51
2022-12-31T20:10:08.464Z,17.36
2022-12-31T20:12:40.589Z,17.37
2022-12-31T20:15:10.796Z,17.48
2022-12-31T20:17:37.337Z,17.22
2022-12-31T20:20:05.037Z,17.21
2022-12-31T20:22:31.561Z,17.18
2022-12-31T20:24:58.323Z,17.25
2022-12-31T20:27:24.867Z,17.20
2022-12-31T20:29:54.005Z,17.17
2022-12-31T20:32:20.537Z,17.34
2022-12-31T20:34:47.099Z,17.14
2022-12-31T20:37:13.663Z,17.19
2022-12-31T20:39:40.233Z,17.21
2022-12-31T20:42:06.982Z,17.32
2022-12-31T20:44:33.843Z,17.18
2022-12-31T20:47:00.352Z,17.14
2022-12-31T20:49:44.861Z,17.22
2022-12-31T20:52:13.497Z,17.36
2022-12-31T20:54:40.093Z,17.19
2022-12-31T20:57:06.856Z,17.22
2022-12-31T20:59:35.722Z,17.23
2022-12-31T21:04:49.082Z,17.33
2022-12-31T21:07:18.868Z,17.17
2022-12-31T21:09:45.426Z,17.24
2022-12-31T21:12:30.869Z,17.10
2022-12-31T21:14:57.840Z,16.85
2022-12-31T21:17:25.295Z,17.03
2022-12-31T21:19:55.111Z,17.18
2022-12-31T21:22:23.053Z,17.16
2022-12-31T21:24:49.597Z,16.97
2022-12-31T21:27:16.257Z,17.07
2022-12-31T21:30:16.321Z,17.10
2022-12-31T21:32:29.468Z,17.05
2022-12-31T21:35:39.513Z,17.09
2022-12-31T21:37:58.953Z,16.93
2022-12-31T21:40:28.493Z,17.20
2022-12-31T21:42:55.284Z,17.07
2022-12-31T21:45:24.743Z,17.14
2022-12-31T21:48:10.739Z,16.94
2022-12-31T21:50:37.390Z,16.92
2022-12-31T21:53:04.274Z,17.07
2022-12-31T21:55:49.690Z,17.18
2022-12-31T21:58:27.737Z,17.31
2022-12-31T22:01:14.628Z,16.97
2022-12-31T22:03:41.647Z,17.03
2022-12-31T22:06:16.339Z,16.99
2022-12-31T22:08:46.274Z,17.14
2022-12-31T22:11:13.498Z,17.09
2022-12-31T22:13:40.267Z,17.25
2022-12-31T22:16:07.297Z,17.07
2022-12-31T22:18:35.752Z,17.05
2022-12-31T22:21:02.431Z,16.92
2022-12-31T22:23:31.701Z,17.05
2022-12-31T22:25:58.280Z,17.18
2022-12-31T22:28:38.257Z,17.21
2022-12-31T22:31:06.358Z,17.15
2022-12-31T22:33:32.963Z,17.07
2022-12-31T22:36:04.413Z,17.04
2022-12-31T22:38:31.327Z,17.21
2022-12-31T22:41:01.773Z,16.97
2022-12-31T22:43:30.454Z,17.09
2022-12-31T22:45:56.971Z,17.06
2022-12-31T22:48:23.606Z,17.18
2022-12-31T22:50:57.106Z,16.84
2022-12-31T22:53:23.837Z,17.05
2022-12-31T22:55:52.986Z,16.97
2022-12-31T22:58:19.852Z,16.99
2022-12-31T23:00:46.983Z,16.94
2022-12-31T23:03:13.928Z,17.05
2022-12-31T23:05:40.779Z,17.15
2022-12-31T23:08:18.672Z,17.16
2022-12-31T23:11:10.403Z,17.08
2022-12-31T23:13:57.287Z,17.03
2022-12-31T23:16:43.674Z,16.98
2022-12-31T23:19:28.871Z,17.01
2022-12-31T23:22:14.173Z,17.10
2022-12-31T23:24:41.045Z,17.04
2022-12-31T23:27:07.651Z,17.04
2022-12-31T23:29:34.248Z,16.93
2022-12-31T23:32:00.798Z,17.05
2022-12-31T23:34:27.401Z,17.07
2022-12-31T23:36:54.057Z,16.99
2022-12-31T23:39:20.768Z,16.97
2022-12-31T23:41:47.304Z,16.95
2022-12-31T23:44:13.910Z,16.92
2022-12-31T23:46:40.568Z,16.91
2022-12-31T23:49:07.155Z,17.03
2022-12-31T23:51:33.682Z,16.92
2022-12-31T23:54:00.899Z,16.90
2022-12-31T23:56:27.549Z,16.78
2022-12-31T23:58:55.578Z,16.86
